createdAt,value
2022-09-05T00:01:47.375Z,3.97
2022-09-05T00:04:24.588Z,3.60
2022-09-05T00:07:01.137Z,3.70
2022-09-05T00:09:56.089Z,3.90
2022-09-05T00:12:25.200Z,3.70
2022-09-05T00:15:16.311Z,3.72
2022-09-05T00:19:30.496Z,3.77
2022-09-05T00:24:18.845Z,4.00
2022-09-05T00:24:34.274Z,3.80
2022-09-05T00:26:56.363Z,3.80
2022-09-05T00:30:11.437Z,3.83
2022-09-05T00:32:43.810Z,3.97
2022-09-05T00:35:27.787Z,3.70
2022-09-05T00:37:56.375Z,3.73
2022-09-05T00:40:31.324Z,4.00
2022-09-05T00:43:05.313Z,3.95
2022-09-05T00:45:38.381Z,3.83
2022-09-05T00:48:17.995Z,3.97
2022-09-05T00:50:59.157Z,4.00
2022-09-05T00:53:35.859Z,4.15
2022-09-05T00:56:17.802Z,4.15
2022-09-05T00:59:31.174Z,4.03
2022-09-05T01:20:29.743Z,3.72
2022-09-05T01:23:27.084Z,3.70
2022-09-05T01:26:22.283Z,4.80
2022-09-05T01:29:17.165Z,4.30
2022-09-05T01:32:06.531Z,4.15
2022-09-05T01:34:47.019Z,3.85
2022-09-05T01:37:32.765Z,3.72
2022-09-05T01:40:16.831Z,4.20
2022-09-05T01:43:00.609Z,4.50
2022-09-05T01:45:42.154Z,4.10
2022-09-05T01:48:22.277Z,3.63
2022-09-05T01:50:57.947Z,4.13
2022-09-05T01:53:38.601Z,3.92
2022-09-05T01:56:30.738Z,4.07
2022-09-05T01:59:28.188Z,4.00
2022-09-05T02:02:14.188Z,3.80
2022-09-05T02:05:11.624Z,3.83
2022-09-05T02:08:00.866Z,4.60
2022-09-05T02:10:40.256Z,4.60
2022-09-05T02:13:19.307Z,4.70
2022-09-05T02:15:59.274Z,4.72
2022-09-05T02:18:40.855Z,4.53
2022-09-05T02:21:19.407Z,4.65
2022-09-05T02:23:53.822Z,4.70
2022-09-05T02:26:27.213Z,4.30
2022-09-05T02:29:01.460Z,4.50
2022-09-05T02:31:42.066Z,4.77
2022-09-05T02:34:14.687Z,4.60
2022-09-05T02:36:46.522Z,4.50
2022-09-05T02:45:00.323Z,4.43
2022-09-05T02:45:17.868Z,4.25
2022-09-05T02:45:26.881Z,4.40
2022-09-05T02:48:09.655Z,4.63
2022-09-05T02:54:38.634Z,4.70
2022-09-05T02:57:26.093Z,4.47
2022-09-05T02:57:44.920Z,4.30
2022-09-05T02:59:47.266Z,4.53
2022-09-05T03:02:25.959Z,4.10
2022-09-05T03:05:04.502Z,4.47
2022-09-05T03:07:59.201Z,4.00
2022-09-05T03:11:04.778Z,3.78
2022-09-05T03:13:54.383Z,3.80
2022-09-05T03:17:14.922Z,4.90
2022-09-05T03:20:08.315Z,4.97
2022-09-05T03:23:15.858Z,4.70
2022-09-05T03:26:32.373Z,4.60
2022-09-05T03:29:35.754Z,4.90
2022-09-05T03:32:27.758Z,4.45
2022-09-05T03:35:20.686Z,4.47
2022-09-05T03:38:25.170Z,4.60
2022-09-05T03:41:11.400Z,4.18
2022-09-05T03:44:20.983Z,4.07
2022-09-05T03:47:14.244Z,3.90
2022-09-05T03:53:31.041Z,4.83
2022-09-05T03:57:06.709Z,5.00
2022-09-05T03:57:10.413Z,4.88
2022-09-05T03:59:38.949Z,4.78
2022-09-05T04:06:10.325Z,3.75
2022-09-05T04:08:18.263Z,4.00
2022-09-05T04:08:19.116Z,4.03
2022-09-05T04:10:56.554Z,3.95
2022-09-05T04:13:29.989Z,4.18
2022-09-05T04:16:07.818Z,3.80
2022-09-05T04:18:39.476Z,4.60
2022-09-05T04:21:14.198Z,4.60
2022-09-05T04:24:00.010Z,4.15
2022-09-05T04:26:49.671Z,4.07
2022-09-05T04:29:27.354Z,3.92
2022-09-05T04:32:17.667Z,4.15
2022-09-05T04:35:00.059Z,4.05
2022-09-05T04:37:55.066Z,4.30
2022-09-05T04:40:44.530Z,4.47
2022-09-05T04:43:22.151Z,4.53
2022-09-05T04:45:54.502Z,4.53
2022-09-05T04:48:27.979Z,4.25
2022-09-05T04:51:11.708Z,3.85
2022-09-05T04:54:08.513Z,5.35
2022-09-05T04:56:42.765Z,4.78
2022-09-05T05:01:00.328Z,5.30
2022-09-05T05:06:08.548Z,4.68
2022-09-05T05:06:14.485Z,4.80
2022-09-05T05:08:02.147Z,4.50
2022-09-05T05:10:55.407Z,4.50
2022-09-05T05:18:03.637Z,4.82
2022-09-05T05:18:08.141Z,4.28
2022-09-05T05:19:21.593Z,4.05
2022-09-05T05:21:54.423Z,4.80
2022-09-05T05:24:26.325Z,4.38
2022-09-05T05:27:00.915Z,4.55
2022-09-05T05:29:39.675Z,4.35
2022-09-05T05:32:08.041Z,4.22
2022-09-05T05:34:44.117Z,4.30
2022-09-05T05:37:20.318Z,3.75
2022-09-05T05:39:59.147Z,3.97
2022-09-05T05:42:26.989Z,3.90
2022-09-05T05:44:58.091Z,3.70
2022-09-05T05:47:31.595Z,3.88
2022-09-05T05:50:11.614Z,3.60
2022-09-05T05:52:58.834Z,3.85
2022-09-05T05:55:51.236Z,3.90
2022-09-05T05:58:52.529Z,3.75
2022-09-05T06:01:55.582Z,3.70
2022-09-05T06:05:03.191Z,3.58
2022-09-05T06:09:33.776Z,3.38
2022-09-05T06:14:57.250Z,3.30
2022-09-05T06:15:00.158Z,3.63
2022-09-05T06:17:58.628Z,3.33
2022-09-05T06:22:11.423Z,3.70
2022-09-05T06:24:27.820Z,2.90
2022-09-05T06:27:19.914Z,3.30
2022-09-05T06:29:59.198Z,3.10
2022-09-05T06:32:58.796Z,3.22
2022-09-05T06:35:39.690Z,3.10
2022-09-05T06:38:28.242Z,3.20
2022-09-05T06:41:20.472Z,2.95
2022-09-05T06:44:23.991Z,3.08
2022-09-05T06:47:23.840Z,2.92
2022-09-05T06:50:23.751Z,3.55
2022-09-05T06:53:34.092Z,3.00
2022-09-05T06:56:32.018Z,3.25
2022-09-05T06:59:35.886Z,3.33
2022-09-05T07:02:11.968Z,3.08
2022-09-05T07:05:37.354Z,2.60
2022-09-05T07:07:42.444Z,2.50
2022-09-05T07:10:37.894Z,2.67
2022-09-05T07:13:16.050Z,2.53
2022-09-05T07:15:54.329Z,2.83
2022-09-05T07:18:31.660Z,2.53
2022-09-05T07:21:17.104Z,2.72
2022-09-05T07:24:06.424Z,2.38
2022-09-05T07:26:53.657Z,2.83
2022-09-05T07:29:27.849Z,2.92
2022-09-05T07:31:57.212Z,3.00
2022-09-05T07:34:29.481Z,2.78
2022-09-05T09:53:54.651Z,2.72
2022-09-05T09:56:52.314Z,2.50
2022-09-05T09:59:57.445Z,2.67
2022-09-05T10:05:28.850Z,2.80
2022-09-05T10:11:09.180Z,2.15
2022-09-05T10:11:17.920Z,2.20
2022-09-05T10:13:08.042Z,2.40
2022-09-05T10:15:41.865Z,2.85
2022-09-05T10:18:44.557Z,2.17
2022-09-05T10:21:47.187Z,2.58
2022-09-05T10:24:52.469Z,3.05
2022-09-05T10:27:30.823Z,2.83
2022-09-05T10:30:08.729Z,2.60
2022-09-05T10:35:04.574Z,2.40
2022-09-05T10:35:37.298Z,2.50
2022-09-05T10:38:11.473Z,2.67
2022-09-05T10:40:51.440Z,2.70
2022-09-05T10:43:38.781Z,2.45
2022-09-05T10:46:39.815Z,2.90
2022-09-05T10:49:09.182Z,2.20
2022-09-05T14:35:49.965Z,1.60
2022-09-05T14:37:41.494Z,1.70
2022-09-05T14:37:58.492Z,2.70
2022-09-05T14:40:30.651Z,1.92
2022-09-05T14:43:24.464Z,1.60
2022-09-05T14:46:28.349Z,1.98
2022-09-05T14:49:29.008Z,1.80
2022-09-05T14:51:58.270Z,1.83
2022-09-05T15:01:37.468Z,1.60
2022-09-05T15:02:44.080Z,1.52
2022-09-05T15:03:05.368Z,1.70
2022-09-05T15:05:41.656Z,1.70
2022-09-05T15:08:33.244Z,1.90
2022-09-05T15:12:15.016Z,1.50
2022-09-05T15:13:57.330Z,1.83
2022-09-05T15:16:26.835Z,1.70
2022-09-05T15:18:56.197Z,1.73
2022-09-05T15:21:34.030Z,1.77
2022-09-05T15:24:14.687Z,1.70
2022-09-05T15:26:51.233Z,1.80
2022-09-05T15:29:24.521Z,1.80
2022-09-05T15:32:09.509Z,1.70
2022-09-05T15:34:38.984Z,2.15
2022-09-05T15:37:22.984Z,1.80
2022-09-05T15:40:02.367Z,1.80
2022-09-05T15:42:32.667Z,2.00
2022-09-05T15:45:11.123Z,1.88
2022-09-05T15:47:47.472Z,1.73
2022-09-05T15:50:22.622Z,1.60
2022-09-05T15:52:55.324Z,1.70
2022-09-05T15:55:25.919Z,1.88
2022-09-05T15:57:56.261Z,1.70
2022-09-05T16:00:52.065Z,1.67
2022-09-05T16:05:46.352Z,1.90
2022-09-05T16:10:36.716Z,2.03
2022-09-05T16:10:43.466Z,1.50
2022-09-05T16:12:18.330Z,1.73
2022-09-05T16:15:01.764Z,1.60
2022-09-05T16:23:17.035Z,1.90
2022-09-05T16:23:37.777Z,1.85
2022-09-05T16:23:41.476Z,1.70
2022-09-05T16:26:14.157Z,1.73
2022-09-05T16:28:50.243Z,1.60
2022-09-05T16:31:24.932Z,1.52
2022-09-05T16:33:55.506Z,1.98
2022-09-05T16:36:30.178Z,2.10
2022-09-05T16:39:02.172Z,2.47
2022-09-05T16:41:40.271Z,1.75
2022-09-05T16:44:15.186Z,1.55
2022-09-05T16:46:48.736Z,1.50
2022-09-05T16:49:36.031Z,1.80
2022-09-05T16:52:17.066Z,2.08
2022-09-05T16:54:49.928Z,1.70
2022-09-05T16:57:21.985Z,1.60
2022-09-05T16:59:51.196Z,1.85
2022-09-05T17:02:28.434Z,2.00
2022-09-05T17:05:11.001Z,1.88
2022-09-05T17:08:02.186Z,1.88
2022-09-05T17:10:34.815Z,1.80
2022-09-05T17:13:05.233Z,1.60
2022-09-05T17:15:36.689Z,2.00
2022-09-05T17:18:21.813Z,2.55
2022-09-05T17:20:56.727Z,2.03
2022-09-05T17:29:18.643Z,2.17
2022-09-05T17:29:24.830Z,2.40
2022-09-05T17:32:33.561Z,2.30
2022-09-05T17:35:17.601Z,2.85
2022-09-05T17:38:12.078Z,3.50
2022-09-05T17:40:57.196Z,3.00
2022-09-05T17:43:29.154Z,2.10
2022-09-05T17:46:12.397Z,2.47
2022-09-05T17:49:19.420Z,2.10
2022-09-05T17:52:17.396Z,2.58
2022-09-05T17:54:49.941Z,2.10
2022-09-05T17:57:41.345Z,2.20
2022-09-05T18:00:49.337Z,2.20
2022-09-05T18:04:16.761Z,2.20
2022-09-05T18:06:59.432Z,2.30
2022-09-05T18:13:13.897Z,2.47
2022-09-05T18:19:32.546Z,2.38
2022-09-05T18:21:54.087Z,2.63
2022-09-05T18:24:33.648Z,2.20
2022-09-05T18:27:43.831Z,2.40
2022-09-05T18:30:07.139Z,2.90
2022-09-05T18:32:53.377Z,2.55
2022-09-05T18:35:37.677Z,2.30
2022-09-05T18:38:50.269Z,2.35
2022-09-05T18:41:18.276Z,2.38
2022-09-05T18:44:14.120Z,2.70
2022-09-05T18:46:47.446Z,2.70
2022-09-05T18:50:22.346Z,2.47
2022-09-05T18:52:16.485Z,2.63
2022-09-05T18:55:57.864Z,3.03
2022-09-05T18:57:48.127Z,2.53
2022-09-05T19:00:24.776Z,2.47
2022-09-05T19:03:14.111Z,3.00
2022-09-05T19:05:47.484Z,2.78
2022-09-05T19:08:28.955Z,3.00
2022-09-05T19:11:09.178Z,2.88
2022-09-05T19:14:18.267Z,2.63
2022-09-05T19:16:48.426Z,2.75
2022-09-05T19:19:24.485Z,2.70
2022-09-05T19:21:57.178Z,2.92
2022-09-05T19:24:45.716Z,2.80
2022-09-05T19:28:49.982Z,2.53
2022-09-05T19:36:45.353Z,2.80
2022-09-05T19:37:07.200Z,2.90
2022-09-05T19:37:15.103Z,2.72
2022-09-05T19:39:40.562Z,3.03
2022-09-05T19:47:25.997Z,2.97
2022-09-05T19:47:40.425Z,2.60
2022-09-05T19:47:46.418Z,2.83
2022-09-05T19:50:11.284Z,2.90
2022-09-05T19:52:40.983Z,2.38
2022-09-05T19:55:21.796Z,3.00
2022-09-05T19:58:19.563Z,2.95
2022-09-05T20:00:47.431Z,2.65
2022-09-05T20:03:38.197Z,2.88
2022-09-05T20:06:30.291Z,3.10
2022-09-05T20:09:19.955Z,2.97
2022-09-05T20:11:50.006Z,3.00
2022-09-05T20:14:20.713Z,3.05
2022-09-05T20:16:50.124Z,2.90
2022-09-05T20:19:28.910Z,2.90
2022-09-05T20:22:10.242Z,3.30
2022-09-05T20:24:51.766Z,2.78
2022-09-05T20:27:27.006Z,2.85
2022-09-05T20:29:57.505Z,2.80
2022-09-05T20:32:38.916Z,2.83
2022-09-05T20:37:34.509Z,3.17
2022-09-05T20:43:18.922Z,2.90
2022-09-05T20:43:19.856Z,3.40
2022-09-05T20:43:52.253Z,3.25
2022-09-05T20:51:37.916Z,3.00
2022-09-05T20:54:04.547Z,3.35
2022-09-05T20:54:21.960Z,3.17
2022-09-05T20:55:38.981Z,3.30
2022-09-05T20:57:50.005Z,3.10
2022-09-05T21:00:22.623Z,3.10
2022-09-05T21:02:54.568Z,3.00
2022-09-05T21:05:30.103Z,3.75
2022-09-05T21:08:24.684Z,2.90
2022-09-05T21:10:55.014Z,2.92
2022-09-05T21:13:28.461Z,3.25
2022-09-05T21:15:57.239Z,3.80
2022-09-05T21:18:33.292Z,3.50
2022-09-05T21:21:27.798Z,3.05
2022-09-05T21:24:17.478Z,3.42
2022-09-05T21:26:47.911Z,3.40
2022-09-05T21:29:26.474Z,3.25
2022-09-05T21:32:00.393Z,3.50
2022-09-05T21:34:31.639Z,3.75
2022-09-05T21:37:06.808Z,3.60
2022-09-05T21:39:40.010Z,3.50
2022-09-05T21:42:35.628Z,3.80
2022-09-05T21:47:34.547Z,3.67
2022-09-05T21:47:53.079Z,3.58
2022-09-05T21:50:31.021Z,3.75
2022-09-05T21:55:40.410Z,3.78
2022-09-05T21:59:20.937Z,3.60
2022-09-05T21:59:21.454Z,3.60
2022-09-05T22:01:46.275Z,3.30
2022-09-05T22:04:19.122Z,3.70
2022-09-05T22:06:48.249Z,3.60
2022-09-05T22:09:17.027Z,3.43
2022-09-05T22:11:50.137Z,3.60
2022-09-05T22:14:18.520Z,3.58
2022-09-05T22:16:50.262Z,3.45
2022-09-05T22:19:22.386Z,3.67
2022-09-05T22:21:52.306Z,3.58
2022-09-05T22:24:20.262Z,3.78
2022-09-05T22:27:10.859Z,3.50
2022-09-05T22:29:40.818Z,3.47
2022-09-05T22:32:10.015Z,3.60
2022-09-05T22:34:37.692Z,3.60
2022-09-05T22:37:05.525Z,3.55
2022-09-05T22:39:37.384Z,3.90
2022-09-05T22:42:09.947Z,3.78
2022-09-05T22:44:38.160Z,3.40
2022-09-05T22:47:06.199Z,3.42
